sensor_id;sensor_type;location;lat;lon;timestamp;P1;durP1;ratioP1;P2;durP2;ratioP2
2320;SDS011;15376;48.540;9.268;2022-12-18T00:02:09;54.17;;;26.50;;
2320;SDS011;15376;48.540;9.268;2022-12-18T00:04:34;61.40;;;31.30;;
2320;SDS011;15376;48.540;9.268;2022-12-18T00:06:59;56.97;;;28.77;;
2320;SDS011;15376;48.540;9.268;2022-12-18T00:09:25;53.40;;;25.97;;
2320;SDS011;15376;48.540;9.268;2022-12-18T00:11:50;54.40;;;29.80;;
2320;SDS011;15376;48.540;9.268;2022-12-18T00:14:15;53.90;;;26.53;;
2320;SDS011;15376;48.540;9.268;2022-12-18T00:16:43;57.80;;;29.47;;
2320;SDS011;15376;48.540;9.268;2022-12-18T00:19:10;69.88;;;29.08;;
2320;SDS011;15376;48.540;9.268;2022-12-18T00:21:35;56.37;;;30.30;;
2320;SDS011;15376;48.540;9.268;2022-12-18T00:24:01;63.53;;;28.23;;
2320;SDS011;15376;48.540;9.268;2022-12-18T00:26:28;54.63;;;29.23;;
2320;SDS011;15376;48.540;9.268;2022-12-18T00:28:58;64.93;;;27.75;;
2320;SDS011;15376;48.540;9.268;2022-12-18T00:31:25;47.55;;;25.58;;
2320;SDS011;15376;48.540;9.268;2022-12-18T00:33:51;47.97;;;25.48;;
2320;SDS011;15376;48.540;9.268;2022-12-18T00:36:18;49.42;;;26.20;;
2320;SDS011;15376;48.540;9.268;2022-12-18T00:38:46;49.60;;;25.35;;
2320;SDS011;15376;48.540;9.268;2022-12-18T00:41:12;63.08;;;27.95;;
2320;SDS011;15376;48.540;9.268;2022-12-18T00:43:59;45.45;;;24.98;;
2320;SDS011;15376;48.540;9.268;2022-12-18T00:46:25;50.77;;;26.00;;
2320;SDS011;15376;48.540;9.268;2022-12-18T00:48:50;48.07;;;28.40;;
2320;SDS011;15376;48.540;9.268;2022-12-18T00:51:15;52.43;;;28.77;;
2320;SDS011;15376;48.540;9.268;2022-12-18T00:53:41;47.97;;;26.77;;
2320;SDS011;15376;48.540;9.268;2022-12-18T00:56:06;43.30;;;25.90;;
2320;SDS011;15376;48.540;9.268;2022-12-18T00:58:31;60.17;;;25.37;;
2320;SDS011;15376;48.540;9.268;2022-12-18T01:00:57;52.67;;;27.73;;
2320;SDS011;15376;48.540;9.268;2022-12-18T01:03:22;47.20;;;27.03;;
2320;SDS011;15376;48.540;9.268;2022-12-18T01:05:47;50.30;;;25.57;;
2320;SDS011;15376;48.540;9.268;2022-12-18T01:08:12;53.10;;;26.43;;
2320;SDS011;15376;48.540;9.268;2022-12-18T01:10:41;53.13;;;25.83;;
2320;SDS011;15376;48.540;9.268;2022-12-18T01:13:06;50.25;;;26.67;;
2320;SDS011;15376;48.540;9.268;2022-12-18T01:15:32;45.17;;;26.43;;
2320;SDS011;15376;48.540;9.268;2022-12-18T01:17:57;51.57;;;25.03;;
2320;SDS011;15376;48.540;9.268;2022-12-18T01:20:22;50.60;;;25.83;;
2320;SDS011;15376;48.540;9.268;2022-12-18T01:22:48;48.70;;;24.17;;
2320;SDS011;15376;48.540;9.268;2022-12-18T01:25:13;51.47;;;25.37;;
2320;SDS011;15376;48.540;9.268;2022-12-18T01:27:39;45.30;;;23.77;;
2320;SDS011;15376;48.540;9.268;2022-12-18T01:30:04;41.53;;;21.37;;
2320;SDS011;15376;48.540;9.268;2022-12-18T01:32:30;43.53;;;21.53;;
2320;SDS011;15376;48.540;9.268;2022-12-18T01:34:56;57.92;;;24.88;;
2320;SDS011;15376;48.540;9.268;2022-12-18T01:37:22;35.93;;;18.97;;
2320;SDS011;15376;48.540;9.268;2022-12-18T01:39:47;37.03;;;19.83;;
2320;SDS011;15376;48.540;9.268;2022-12-18T01:42:14;33.17;;;20.37;;
2320;SDS011;15376;48.540;9.268;2022-12-18T01:47:30;43.45;;;22.80;;
2320;SDS011;15376;48.540;9.268;2022-12-18T01:52:49;35.85;;;20.63;;
2320;SDS011;15376;48.540;9.268;2022-12-18T01:55:17;44.88;;;22.58;;
2320;SDS011;15376;48.540;9.268;2022-12-18T01:57:45;39.95;;;22.00;;
2320;SDS011;15376;48.540;9.268;2022-12-18T02:00:16;49.33;;;22.20;;
2320;SDS011;15376;48.540;9.268;2022-12-18T02:02:44;37.33;;;21.50;;
2320;SDS011;15376;48.540;9.268;2022-12-18T02:05:11;37.92;;;21.50;;
2320;SDS011;15376;48.540;9.268;2022-12-18T02:10:13;37.15;;;18.70;;
2320;SDS011;15376;48.540;9.268;2022-12-18T02:18:24;43.25;;;20.55;;
2320;SDS011;15376;48.540;9.268;2022-12-18T02:23:35;42.92;;;20.70;;
2320;SDS011;15376;48.540;9.268;2022-12-18T02:26:30;35.33;;;19.05;;
2320;SDS011;15376;48.540;9.268;2022-12-18T02:29:05;32.20;;;19.73;;
2320;SDS011;15376;48.540;9.268;2022-12-18T02:31:36;51.40;;;16.05;;
2320;SDS011;15376;48.540;9.268;2022-12-18T02:34:08;36.70;;;18.75;;
2320;SDS011;15376;48.540;9.268;2022-12-18T02:36:36;41.92;;;21.25;;
2320;SDS011;15376;48.540;9.268;2022-12-18T02:39:05;37.70;;;18.65;;
2320;SDS011;15376;48.540;9.268;2022-12-18T02:41:32;39.78;;;19.67;;
2320;SDS011;15376;48.540;9.268;2022-12-18T02:44:00;34.92;;;18.08;;
2320;SDS011;15376;48.540;9.268;2022-12-18T02:46:33;35.42;;;20.23;;
2320;SDS011;15376;48.540;9.268;2022-12-18T03:00:13;33.83;;;18.35;;
2320;SDS011;15376;48.540;9.268;2022-12-18T03:05:17;36.10;;;21.35;;
2320;SDS011;15376;48.540;9.268;2022-12-18T03:07:51;40.80;;;21.23;;
2320;SDS011;15376;48.540;9.268;2022-12-18T03:10:23;37.35;;;18.25;;
2320;SDS011;15376;48.540;9.268;2022-12-18T03:12:54;33.70;;;19.55;;
2320;SDS011;15376;48.540;9.268;2022-12-18T03:15:30;29.65;;;20.80;;
2320;SDS011;15376;48.540;9.268;2022-12-18T03:18:06;31.65;;;17.10;;
2320;SDS011;15376;48.540;9.268;2022-12-18T03:20:38;30.75;;;19.38;;
2320;SDS011;15376;48.540;9.268;2022-12-18T03:23:09;34.05;;;18.52;;
2320;SDS011;15376;48.540;9.268;2022-12-18T03:25:39;38.53;;;21.30;;
2320;SDS011;15376;48.540;9.268;2022-12-18T03:28:08;35.38;;;18.15;;
2320;SDS011;15376;48.540;9.268;2022-12-18T03:30:37;37.85;;;19.10;;
2320;SDS011;15376;48.540;9.268;2022-12-18T03:33:07;41.88;;;19.83;;
2320;SDS011;15376;48.540;9.268;2022-12-18T03:35:38;43.17;;;19.92;;
2320;SDS011;15376;48.540;9.268;2022-12-18T03:38:06;34.25;;;19.90;;
2320;SDS011;15376;48.540;9.268;2022-12-18T03:40:40;32.67;;;18.58;;
2320;SDS011;15376;48.540;9.268;2022-12-18T03:43:17;30.52;;;20.50;;
2320;SDS011;15376;48.540;9.268;2022-12-18T03:45:51;31.17;;;18.95;;
2320;SDS011;15376;48.540;9.268;2022-12-18T03:49:05;33.20;;;19.10;;
2320;SDS011;15376;48.540;9.268;2022-12-18T03:51:24;25.10;;;14.98;;
2320;SDS011;15376;48.540;9.268;2022-12-18T03:53:57;31.70;;;18.45;;
2320;SDS011;15376;48.540;9.268;2022-12-18T03:56:26;43.50;;;20.33;;
2320;SDS011;15376;48.540;9.268;2022-12-18T03:58:56;29.48;;;16.67;;
2320;SDS011;15376;48.540;9.268;2022-12-18T04:01:25;32.60;;;16.50;;
2320;SDS011;15376;48.540;9.268;2022-12-18T04:03:56;28.75;;;17.75;;
2320;SDS011;15376;48.540;9.268;2022-12-18T04:06:25;29.58;;;15.13;;
2320;SDS011;15376;48.540;9.268;2022-12-18T04:08:51;26.58;;;18.35;;
2320;SDS011;15376;48.540;9.268;2022-12-18T04:11:17;28.25;;;16.15;;
2320;SDS011;15376;48.540;9.268;2022-12-18T04:13:42;37.00;;;20.07;;
2320;SDS011;15376;48.540;9.268;2022-12-18T04:16:08;40.10;;;18.80;;
2320;SDS011;15376;48.540;9.268;2022-12-18T04:18:34;34.40;;;19.35;;
2320;SDS011;15376;48.540;9.268;2022-12-18T04:21:00;41.20;;;20.35;;
2320;SDS011;15376;48.540;9.268;2022-12-18T04:23:26;33.80;;;18.95;;
2320;SDS011;15376;48.540;9.268;2022-12-18T04:25:53;35.17;;;18.00;;
2320;SDS011;15376;48.540;9.268;2022-12-18T04:28:19;29.70;;;19.95;;
2320;SDS011;15376;48.540;9.268;2022-12-18T04:30:44;38.07;;;22.13;;
2320;SDS011;15376;48.540;9.268;2022-12-18T04:33:18;36.67;;;19.65;;
2320;SDS011;15376;48.540;9.268;2022-12-18T04:35:44;32.95;;;19.38;;
2320;SDS011;15376;48.540;9.268;2022-12-18T04:38:09;39.40;;;18.77;;
2320;SDS011;15376;48.540;9.268;2022-12-18T04:40:35;30.53;;;16.57;;
2320;SDS011;15376;48.540;9.268;2022-12-18T04:43:02;35.70;;;19.52;;
2320;SDS011;15376;48.540;9.268;2022-12-18T04:45:27;37.88;;;20.05;;
2320;SDS011;15376;48.540;9.268;2022-12-18T04:47:53;31.80;;;18.60;;
2320;SDS011;15376;48.540;9.268;2022-12-18T04:50:18;36.03;;;20.43;;
2320;SDS011;15376;48.540;9.268;2022-12-18T04:52:43;37.17;;;20.83;;
2320;SDS011;15376;48.540;9.268;2022-12-18T04:55:09;33.07;;;17.40;;
2320;SDS011;15376;48.540;9.268;2022-12-18T04:57:34;37.93;;;19.27;;
2320;SDS011;15376;48.540;9.268;2022-12-18T05:00:00;31.13;;;17.33;;
2320;SDS011;15376;48.540;9.268;2022-12-18T05:02:25;36.17;;;18.87;;
2320;SDS011;15376;48.540;9.268;2022-12-18T05:04:52;35.10;;;19.27;;
2320;SDS011;15376;48.540;9.268;2022-12-18T05:07:17;38.55;;;22.25;;
2320;SDS011;15376;48.540;9.268;2022-12-18T05:09:42;36.97;;;18.40;;
2320;SDS011;15376;48.540;9.268;2022-12-18T05:12:08;27.43;;;16.40;;
2320;SDS011;15376;48.540;9.268;2022-12-18T05:14:33;27.27;;;17.07;;
2320;SDS011;15376;48.540;9.268;2022-12-18T05:16:58;30.93;;;17.80;;
2320;SDS011;15376;48.540;9.268;2022-12-18T05:19:24;30.50;;;17.40;;
2320;SDS011;15376;48.540;9.268;2022-12-18T05:21:49;38.63;;;19.10;;
2320;SDS011;15376;48.540;9.268;2022-12-18T05:24:14;26.57;;;17.67;;
2320;SDS011;15376;48.540;9.268;2022-12-18T05:26:40;38.20;;;19.17;;
2320;SDS011;15376;48.540;9.268;2022-12-18T05:29:05;35.73;;;18.63;;
2320;SDS011;15376;48.540;9.268;2022-12-18T05:31:31;32.57;;;19.27;;
2320;SDS011;15376;48.540;9.268;2022-12-18T05:33:57;33.67;;;18.30;;
2320;SDS011;15376;48.540;9.268;2022-12-18T05:36:22;33.22;;;18.27;;
2320;SDS011;15376;48.540;9.268;2022-12-18T05:38:48;32.23;;;16.07;;
2320;SDS011;15376;48.540;9.268;2022-12-18T05:41:14;38.27;;;18.50;;
2320;SDS011;15376;48.540;9.268;2022-12-18T05:43:39;38.47;;;18.73;;
2320;SDS011;15376;48.540;9.268;2022-12-18T05:46:06;31.70;;;17.65;;
2320;SDS011;15376;48.540;9.268;2022-12-18T05:48:34;31.80;;;17.20;;
2320;SDS011;15376;48.540;9.268;2022-12-18T05:51:03;29.87;;;17.47;;
2320;SDS011;15376;48.540;9.268;2022-12-18T05:53:34;30.95;;;18.70;;
2320;SDS011;15376;48.540;9.268;2022-12-18T05:56:01;23.50;;;14.45;;
2320;SDS011;15376;48.540;9.268;2022-12-18T05:58:28;43.10;;;18.63;;
2320;SDS011;15376;48.540;9.268;2022-12-18T06:00:54;28.33;;;16.57;;
2320;SDS011;15376;48.540;9.268;2022-12-18T06:03:19;37.73;;;17.10;;
2320;SDS011;15376;48.540;9.268;2022-12-18T06:05:45;36.30;;;17.10;;
2320;SDS011;15376;48.540;9.268;2022-12-18T06:08:11;38.60;;;18.60;;
2320;SDS011;15376;48.540;9.268;2022-12-18T06:10:38;32.10;;;18.27;;
2320;SDS011;15376;48.540;9.268;2022-12-18T06:13:04;30.30;;;15.20;;
2320;SDS011;15376;48.540;9.268;2022-12-18T06:15:30;29.55;;;16.73;;
2320;SDS011;15376;48.540;9.268;2022-12-18T06:17:55;29.53;;;16.77;;
2320;SDS011;15376;48.540;9.268;2022-12-18T06:20:20;21.53;;;15.07;;
2320;SDS011;15376;48.540;9.268;2022-12-18T06:22:46;24.03;;;12.40;;
2320;SDS011;15376;48.540;9.268;2022-12-18T06:25:11;28.43;;;15.50;;
2320;SDS011;15376;48.540;9.268;2022-12-18T06:27:37;45.43;;;16.90;;
2320;SDS011;15376;48.540;9.268;2022-12-18T06:30:03;31.73;;;17.00;;
2320;SDS011;15376;48.540;9.268;2022-12-18T06:32:29;28.08;;;15.13;;
2320;SDS011;15376;48.540;9.268;2022-12-18T06:34:54;26.60;;;14.50;;
2320;SDS011;15376;48.540;9.268;2022-12-18T06:37:20;24.87;;;14.30;;
2320;SDS011;15376;48.540;9.268;2022-12-18T06:39:46;26.25;;;14.25;;
2320;SDS011;15376;48.540;9.268;2022-12-18T06:42:11;24.43;;;14.07;;
2320;SDS011;15376;48.540;9.268;2022-12-18T06:44:37;26.30;;;14.80;;
2320;SDS011;15376;48.540;9.268;2022-12-18T06:47:02;30.93;;;16.33;;
2320;SDS011;15376;48.540;9.268;2022-12-18T06:49:27;28.97;;;13.77;;
2320;SDS011;15376;48.540;9.268;2022-12-18T06:51:53;50.53;;;19.47;;
2320;SDS011;15376;48.540;9.268;2022-12-18T06:54:18;27.40;;;14.57;;
2320;SDS011;15376;48.540;9.268;2022-12-18T06:56:46;31.10;;;17.10;;
2320;SDS011;15376;48.540;9.268;2022-12-18T06:59:12;26.02;;;14.30;;
2320;SDS011;15376;48.540;9.268;2022-12-18T07:01:39;30.35;;;14.30;;
2320;SDS011;15376;48.540;9.268;2022-12-18T07:04:04;26.73;;;14.70;;
2320;SDS011;15376;48.540;9.268;2022-12-18T07:06:30;33.03;;;15.20;;
2320;SDS011;15376;48.540;9.268;2022-12-18T07:08:55;30.90;;;17.50;;
2320;SDS011;15376;48.540;9.268;2022-12-18T07:11:20;28.67;;;15.90;;
2320;SDS011;15376;48.540;9.268;2022-12-18T07:13:46;31.00;;;15.17;;
2320;SDS011;15376;48.540;9.268;2022-12-18T07:16:19;31.90;;;17.13;;
2320;SDS011;15376;48.540;9.268;2022-12-18T07:18:45;27.75;;;15.10;;
2320;SDS011;15376;48.540;9.268;2022-12-18T07:21:15;18.17;;;10.83;;
2320;SDS011;15376;48.540;9.268;2022-12-18T07:23:42;37.35;;;17.35;;
2320;SDS011;15376;48.540;9.268;2022-12-18T07:26:08;29.73;;;15.87;;
2320;SDS011;15376;48.540;9.268;2022-12-18T07:28:36;41.88;;;15.45;;
2320;SDS011;15376;48.540;9.268;2022-12-18T07:31:03;26.25;;;14.65;;
2320;SDS011;15376;48.540;9.268;2022-12-18T07:33:33;31.52;;;17.52;;
2320;SDS011;15376;48.540;9.268;2022-12-18T07:35:59;29.42;;;14.77;;
2320;SDS011;15376;48.540;9.268;2022-12-18T07:38:25;34.22;;;16.65;;
2320;SDS011;15376;48.540;9.268;2022-12-18T07:40:51;37.83;;;18.97;;
2320;SDS011;15376;48.540;9.268;2022-12-18T07:43:16;25.00;;;14.20;;
2320;SDS011;15376;48.540;9.268;2022-12-18T07:45:42;40.37;;;17.23;;
2320;SDS011;15376;48.540;9.268;2022-12-18T07:48:08;26.40;;;14.23;;
2320;SDS011;15376;48.540;9.268;2022-12-18T07:50:33;25.10;;;15.37;;
2320;SDS011;15376;48.540;9.268;2022-12-18T07:52:59;26.73;;;13.83;;
2320;SDS011;15376;48.540;9.268;2022-12-18T07:55:28;36.97;;;17.30;;
2320;SDS011;15376;48.540;9.268;2022-12-18T07:57:54;32.60;;;15.43;;
2320;SDS011;15376;48.540;9.268;2022-12-18T08:00:19;32.60;;;15.57;;
2320;SDS011;15376;48.540;9.268;2022-12-18T08:02:45;27.30;;;15.90;;
2320;SDS011;15376;48.540;9.268;2022-12-18T08:05:10;26.93;;;15.00;;
2320;SDS011;15376;48.540;9.268;2022-12-18T08:07:35;31.13;;;16.53;;
2320;SDS011;15376;48.540;9.268;2022-12-18T08:10:01;31.97;;;15.47;;
2320;SDS011;15376;48.540;9.268;2022-12-18T08:12:26;27.57;;;14.50;;
2320;SDS011;15376;48.540;9.268;2022-12-18T08:14:51;23.53;;;13.83;;
2320;SDS011;15376;48.540;9.268;2022-12-18T08:17:17;30.87;;;17.27;;
2320;SDS011;15376;48.540;9.268;2022-12-18T08:19:43;26.55;;;15.27;;
2320;SDS011;15376;48.540;9.268;2022-12-18T08:22:09;37.53;;;16.33;;
2320;SDS011;15376;48.540;9.268;2022-12-18T08:24:34;25.30;;;15.70;;
2320;SDS011;15376;48.540;9.268;2022-12-18T08:27:00;27.93;;;17.07;;
2320;SDS011;15376;48.540;9.268;2022-12-18T08:29:25;30.93;;;17.77;;
2320;SDS011;15376;48.540;9.268;2022-12-18T08:31:50;24.17;;;15.83;;
2320;SDS011;15376;48.540;9.268;2022-12-18T08:34:16;39.33;;;14.67;;
2320;SDS011;15376;48.540;9.268;2022-12-18T08:36:41;32.37;;;16.90;;
2320;SDS011;15376;48.540;9.268;2022-12-18T08:39:06;31.63;;;16.20;;
2320;SDS011;15376;48.540;9.268;2022-12-18T08:41:32;33.07;;;19.80;;
2320;SDS011;15376;48.540;9.268;2022-12-18T08:43:57;35.03;;;18.50;;
2320;SDS011;15376;48.540;9.268;2022-12-18T08:46:41;31.92;;;17.73;;
2320;SDS011;15376;48.540;9.268;2022-12-18T08:49:08;29.92;;;18.23;;
2320;SDS011;15376;48.540;9.268;2022-12-18T08:51:35;31.77;;;17.20;;
2320;SDS011;15376;48.540;9.268;2022-12-18T08:54:01;40.27;;;17.43;;
2320;SDS011;15376;48.540;9.268;2022-12-18T08:56:27;30.85;;;15.77;;
2320;SDS011;15376;48.540;9.268;2022-12-18T08:58:53;31.60;;;18.00;;
2320;SDS011;15376;48.540;9.268;2022-12-18T09:01:19;24.05;;;17.25;;
2320;SDS011;15376;48.540;9.268;2022-12-18T09:03:50;34.65;;;17.73;;
2320;SDS011;15376;48.540;9.268;2022-12-18T09:06:16;37.08;;;18.67;;
2320;SDS011;15376;48.540;9.268;2022-12-18T09:08:45;45.50;;;23.38;;
2320;SDS011;15376;48.540;9.268;2022-12-18T09:11:12;37.15;;;19.90;;
2320;SDS011;15376;48.540;9.268;2022-12-18T09:13:40;29.58;;;18.80;;
2320;SDS011;15376;48.540;9.268;2022-12-18T09:16:05;34.60;;;18.70;;
2320;SDS011;15376;48.540;9.268;2022-12-18T09:18:31;46.80;;;23.03;;
2320;SDS011;15376;48.540;9.268;2022-12-18T09:20:56;46.40;;;23.53;;
2320;SDS011;15376;48.540;9.268;2022-12-18T09:23:21;30.97;;;18.20;;
2320;SDS011;15376;48.540;9.268;2022-12-18T09:25:47;42.80;;;21.63;;
2320;SDS011;15376;48.540;9.268;2022-12-18T09:28:16;35.37;;;21.40;;
2320;SDS011;15376;48.540;9.268;2022-12-18T09:30:44;35.10;;;21.35;;
2320;SDS011;15376;48.540;9.268;2022-12-18T09:33:11;33.58;;;19.20;;
2320;SDS011;15376;48.540;9.268;2022-12-18T09:35:40;29.40;;;19.03;;
2320;SDS011;15376;48.540;9.268;2022-12-18T09:38:07;26.23;;;18.17;;
2320;SDS011;15376;48.540;9.268;2022-12-18T09:40:39;29.57;;;18.90;;
2320;SDS011;15376;48.540;9.268;2022-12-18T09:43:17;30.87;;;19.17;;
2320;SDS011;15376;48.540;9.268;2022-12-18T09:45:51;30.80;;;19.50;;
2320;SDS011;15376;48.540;9.268;2022-12-18T09:48:22;32.83;;;21.17;;
2320;SDS011;15376;48.540;9.268;2022-12-18T09:50:51;35.70;;;21.80;;
2320;SDS011;15376;48.540;9.268;2022-12-18T09:53:25;37.17;;;22.07;;
2320;SDS011;15376;48.540;9.268;2022-12-18T09:55:52;29.30;;;18.93;;
2320;SDS011;15376;48.540;9.268;2022-12-18T09:58:39;32.53;;;20.10;;
2320;SDS011;15376;48.540;9.268;2022-12-18T10:01:16;26.00;;;19.10;;
2320;SDS011;15376;48.540;9.268;2022-12-18T10:03:45;33.80;;;21.67;;
2320;SDS011;15376;48.540;9.268;2022-12-18T10:06:13;38.97;;;21.70;;
2320;SDS011;15376;48.540;9.268;2022-12-18T10:08:46;37.90;;;26.00;;
2320;SDS011;15376;48.540;9.268;2022-12-18T10:17:07;41.67;;;23.25;;
2320;SDS011;15376;48.540;9.268;2022-12-18T10:19:45;41.30;;;24.33;;
2320;SDS011;15376;48.540;9.268;2022-12-18T10:22:21;38.28;;;22.35;;
2320;SDS011;15376;48.540;9.268;2022-12-18T10:24:59;41.08;;;24.00;;
2320;SDS011;15376;48.540;9.268;2022-12-18T10:27:31;39.80;;;22.98;;
2320;SDS011;15376;48.540;9.268;2022-12-18T10:29:56;37.10;;;25.17;;
2320;SDS011;15376;48.540;9.268;2022-12-18T10:32:28;39.17;;;25.35;;
2320;SDS011;15376;48.540;9.268;2022-12-18T10:34:56;51.42;;;28.35;;
2320;SDS011;15376;48.540;9.268;2022-12-18T10:37:26;45.30;;;26.75;;
2320;SDS011;15376;48.540;9.268;2022-12-18T10:40:12;39.58;;;25.80;;
2320;SDS011;15376;48.540;9.268;2022-12-18T10:42:40;49.72;;;25.98;;
2320;SDS011;15376;48.540;9.268;2022-12-18T10:45:12;39.90;;;24.35;;
2320;SDS011;15376;48.540;9.268;2022-12-18T10:47:47;45.00;;;25.25;;
2320;SDS011;15376;48.540;9.268;2022-12-18T10:50:23;41.50;;;26.33;;
2320;SDS011;15376;48.540;9.268;2022-12-18T10:52:58;41.78;;;24.35;;
2320;SDS011;15376;48.540;9.268;2022-12-18T10:55:27;43.38;;;25.17;;
2320;SDS011;15376;48.540;9.268;2022-12-18T11:01:04;46.20;;;25.15;;
2320;SDS011;15376;48.540;9.268;2022-12-18T11:06:14;38.55;;;25.48;;
2320;SDS011;15376;48.540;9.268;2022-12-18T11:08:42;42.70;;;24.80;;
2320;SDS011;15376;48.540;9.268;2022-12-18T11:11:22;48.47;;;25.77;;
2320;SDS011;15376;48.540;9.268;2022-12-18T11:14:41;44.63;;;26.48;;
2320;SDS011;15376;48.540;9.268;2022-12-18T11:16:54;47.42;;;24.60;;
2320;SDS011;15376;48.540;9.268;2022-12-18T11:19:31;47.17;;;26.55;;
2320;SDS011;15376;48.540;9.268;2022-12-18T11:21:57;48.55;;;26.77;;
2320;SDS011;15376;48.540;9.268;2022-12-18T11:24:31;52.60;;;27.98;;
2320;SDS011;15376;48.540;9.268;2022-12-18T11:27:00;41.90;;;25.48;;
2320;SDS011;15376;48.540;9.268;2022-12-18T11:29:35;44.30;;;26.25;;
2320;SDS011;15376;48.540;9.268;2022-12-18T11:32:12;57.38;;;28.83;;
2320;SDS011;15376;48.540;9.268;2022-12-18T11:34:45;51.55;;;28.55;;
2320;SDS011;15376;48.540;9.268;2022-12-18T11:37:14;49.38;;;27.48;;
2320;SDS011;15376;48.540;9.268;2022-12-18T11:39:52;45.13;;;26.50;;
2320;SDS011;15376;48.540;9.268;2022-12-18T11:50:20;45.58;;;28.60;;
2320;SDS011;15376;48.540;9.268;2022-12-18T11:52:49;50.63;;;29.80;;
2320;SDS011;15376;48.540;9.268;2022-12-18T11:55:25;54.50;;;30.00;;
2320;SDS011;15376;48.540;9.268;2022-12-18T11:58:11;49.38;;;29.08;;
2320;SDS011;15376;48.540;9.268;2022-12-18T12:00:52;51.20;;;26.65;;
2320;SDS011;15376;48.540;9.268;2022-12-18T12:22:40;50.35;;;31.67;;
2320;SDS011;15376;48.540;9.268;2022-12-18T12:25:19;53.97;;;31.67;;
2320;SDS011;15376;48.540;9.268;2022-12-18T12:30:41;51.97;;;29.90;;
2320;SDS011;15376;48.540;9.268;2022-12-18T12:34:17;47.40;;;28.55;;
2320;SDS011;15376;48.540;9.268;2022-12-18T12:38:59;46.75;;;29.85;;
2320;SDS011;15376;48.540;9.268;2022-12-18T12:41:31;46.08;;;27.98;;
2320;SDS011;15376;48.540;9.268;2022-12-18T12:44:23;42.65;;;27.92;;
2320;SDS011;15376;48.540;9.268;2022-12-18T12:46:55;64.35;;;30.95;;
2320;SDS011;15376;48.540;9.268;2022-12-18T12:49:26;49.78;;;28.15;;
2320;SDS011;15376;48.540;9.268;2022-12-18T12:51:58;45.97;;;29.25;;
2320;SDS011;15376;48.540;9.268;2022-12-18T12:54:29;48.45;;;28.77;;
2320;SDS011;15376;48.540;9.268;2022-12-18T12:59:30;53.50;;;30.50;;
2320;SDS011;15376;48.540;9.268;2022-12-18T13:04:49;60.20;;;31.75;;
2320;SDS011;15376;48.540;9.268;2022-12-18T13:20:35;51.97;;;29.57;;
2320;SDS011;15376;48.540;9.268;2022-12-18T13:25:59;50.53;;;28.98;;
2320;SDS011;15376;48.540;9.268;2022-12-18T13:31:14;53.95;;;31.52;;
2320;SDS011;15376;48.540;9.268;2022-12-18T13:36:55;63.95;;;40.13;;
2320;SDS011;15376;48.540;9.268;2022-12-18T13:39:41;54.17;;;36.00;;
2320;SDS011;15376;48.540;9.268;2022-12-18T13:47:00;58.75;;;31.77;;
2320;SDS011;15376;48.540;9.268;2022-12-18T13:52:27;50.88;;;32.45;;
2320;SDS011;15376;48.540;9.268;2022-12-18T13:54:54;51.85;;;32.10;;
2320;SDS011;15376;48.540;9.268;2022-12-18T13:59:54;44.40;;;29.77;;
2320;SDS011;15376;48.540;9.268;2022-12-18T14:02:25;47.10;;;28.77;;
2320;SDS011;15376;48.540;9.268;2022-12-18T14:04:52;49.90;;;30.15;;
2320;SDS011;15376;48.540;9.268;2022-12-18T14:07:22;53.70;;;32.83;;
2320;SDS011;15376;48.540;9.268;2022-12-18T14:09:54;50.33;;;30.38;;
2320;SDS011;15376;48.540;9.268;2022-12-18T14:12:25;45.72;;;30.10;;
2320;SDS011;15376;48.540;9.268;2022-12-18T14:15:20;51.63;;;30.95;;
2320;SDS011;15376;48.540;9.268;2022-12-18T14:17:51;60.75;;;31.92;;
2320;SDS011;15376;48.540;9.268;2022-12-18T14:20:18;48.60;;;28.60;;
2320;SDS011;15376;48.540;9.268;2022-12-18T14:22:45;52.45;;;28.13;;
2320;SDS011;15376;48.540;9.268;2022-12-18T14:27:40;47.40;;;27.07;;
2320;SDS011;15376;48.540;9.268;2022-12-18T14:33:05;51.58;;;30.52;;
2320;SDS011;15376;48.540;9.268;2022-12-18T14:35:42;43.08;;;28.10;;
2320;SDS011;15376;48.540;9.268;2022-12-18T14:40:45;47.30;;;30.45;;
2320;SDS011;15376;48.540;9.268;2022-12-18T14:43:11;52.47;;;30.57;;
2320;SDS011;15376;48.540;9.268;2022-12-18T14:45:37;49.63;;;27.30;;
2320;SDS011;15376;48.540;9.268;2022-12-18T14:48:17;46.33;;;28.15;;
2320;SDS011;15376;48.540;9.268;2022-12-18T14:50:45;45.85;;;29.83;;
2320;SDS011;15376;48.540;9.268;2022-12-18T14:53:22;56.85;;;29.27;;
2320;SDS011;15376;48.540;9.268;2022-12-18T14:55:56;49.15;;;29.10;;
2320;SDS011;15376;48.540;9.268;2022-12-18T14:58:21;54.10;;;33.00;;
2320;SDS011;15376;48.540;9.268;2022-12-18T15:00:47;57.83;;;36.50;;
2320;SDS011;15376;48.540;9.268;2022-12-18T15:03:13;59.57;;;32.87;;
2320;SDS011;15376;48.540;9.268;2022-12-18T15:05:44;52.97;;;34.35;;
2320;SDS011;15376;48.540;9.268;2022-12-18T15:11:27;53.92;;;33.05;;
2320;SDS011;15376;48.540;9.268;2022-12-18T15:16:55;57.47;;;31.58;;
2320;SDS011;15376;48.540;9.268;2022-12-18T15:19:22;58.95;;;30.35;;
2320;SDS011;15376;48.540;9.268;2022-12-18T15:22:28;83.95;;;41.42;;
2320;SDS011;15376;48.540;9.268;2022-12-18T15:24:55;79.70;;;41.10;;
2320;SDS011;15376;48.540;9.268;2022-12-18T15:27:24;82.65;;;42.10;;
2320;SDS011;15376;48.540;9.268;2022-12-18T15:32:34;86.35;;;43.60;;
2320;SDS011;15376;48.540;9.268;2022-12-18T15:37:51;61.10;;;37.60;;
2320;SDS011;15376;48.540;9.268;2022-12-18T15:40:18;64.72;;;35.80;;
2320;SDS011;15376;48.540;9.268;2022-12-18T15:42:45;66.18;;;37.13;;
2320;SDS011;15376;48.540;9.268;2022-12-18T15:45:30;62.72;;;34.08;;
2320;SDS011;15376;48.540;9.268;2022-12-18T15:47:55;53.37;;;33.40;;
2320;SDS011;15376;48.540;9.268;2022-12-18T15:50:21;58.73;;;29.53;;
2320;SDS011;15376;48.540;9.268;2022-12-18T15:52:47;63.50;;;32.50;;
2320;SDS011;15376;48.540;9.268;2022-12-18T15:55:15;53.60;;;30.38;;
2320;SDS011;15376;48.540;9.268;2022-12-18T15:58:05;52.75;;;28.77;;
2320;SDS011;15376;48.540;9.268;2022-12-18T16:00:31;69.47;;;38.40;;
2320;SDS011;15376;48.540;9.268;2022-12-18T16:02:58;68.15;;;40.53;;
2320;SDS011;15376;48.540;9.268;2022-12-18T16:05:24;54.07;;;33.30;;
2320;SDS011;15376;48.540;9.268;2022-12-18T16:07:50;67.90;;;37.40;;
2320;SDS011;15376;48.540;9.268;2022-12-18T16:10:16;61.93;;;36.00;;
2320;SDS011;15376;48.540;9.268;2022-12-18T16:12:41;61.30;;;32.57;;
2320;SDS011;15376;48.540;9.268;2022-12-18T16:15:07;49.70;;;27.93;;
2320;SDS011;15376;48.540;9.268;2022-12-18T16:17:33;50.63;;;28.53;;
2320;SDS011;15376;48.540;9.268;2022-12-18T16:19:58;53.43;;;29.30;;
2320;SDS011;15376;48.540;9.268;2022-12-18T16:22:24;46.77;;;28.00;;
2320;SDS011;15376;48.540;9.268;2022-12-18T16:24:52;53.60;;;28.77;;
2320;SDS011;15376;48.540;9.268;2022-12-18T16:27:17;49.45;;;26.02;;
2320;SDS011;15376;48.540;9.268;2022-12-18T16:29:43;44.30;;;26.92;;
2320;SDS011;15376;48.540;9.268;2022-12-18T16:32:11;46.80;;;30.10;;
2320;SDS011;15376;48.540;9.268;2022-12-18T16:34:38;45.08;;;26.70;;
2320;SDS011;15376;48.540;9.268;2022-12-18T16:37:06;59.27;;;27.17;;
2320;SDS011;15376;48.540;9.268;2022-12-18T16:39:33;51.63;;;28.15;;
2320;SDS011;15376;48.540;9.268;2022-12-18T16:41:59;49.13;;;27.63;;
2320;SDS011;15376;48.540;9.268;2022-12-18T16:44:25;48.35;;;28.38;;
2320;SDS011;15376;48.540;9.268;2022-12-18T16:46:51;47.47;;;25.97;;
2320;SDS011;15376;48.540;9.268;2022-12-18T16:49:17;42.93;;;27.47;;
2320;SDS011;15376;48.540;9.268;2022-12-18T16:51:43;45.78;;;27.65;;
2320;SDS011;15376;48.540;9.268;2022-12-18T16:54:10;43.63;;;25.52;;
2320;SDS011;15376;48.540;9.268;2022-12-18T16:56:36;38.70;;;24.83;;